Otter Creek, Florida
Current Conditions -  °F | °C
As of 9:35 AM on Saturday 20 Dec 2014 (Local Time) from KCGC Reporting Station
Scattered Clouds Scattered Clouds  
Wind Chill: 64°   Ceiling: Unl
Heat Index: 64°   Visibility: 10mi
Dew Point: 54°   Wind: 7mph
Humidity: 68%   Direction: 100°E
Pressure: 30.12"   Gusts: NA
Location:  29.32°N, 82.77°W
Report Text: KCGC 201435Z AUTO 10006KT 10SM SCT100 18/12 A3012 RMK AO2
Loading
Personal Weather Stations






























Interactive Weather Map New forecast layout! Learn more

10-Day Weather Forecast

Advertisements
Track Severe Weather on mobile